createdAt,value
2023-02-22T00:00:45.720Z,2.67
2023-02-22T00:05:58.918Z,2.87
2023-02-22T00:11:08.956Z,3.00
2023-02-22T00:16:21.788Z,2.97
2023-02-22T00:21:24.872Z,2.47
2023-02-22T00:26:28.079Z,2.60
2023-02-22T00:31:31.829Z,2.57
2023-02-22T00:36:35.673Z,3.00
2023-02-22T00:41:39.207Z,3.10
2023-02-22T00:46:42.632Z,3.33
2023-02-22T00:51:45.932Z,2.30
2023-02-22T00:56:50.817Z,1.87
2023-02-22T01:01:54.335Z,1.77
2023-02-22T01:07:00.888Z,2.57
2023-02-22T01:12:06.390Z,2.03
2023-02-22T01:17:10.546Z,2.20
2023-02-22T01:22:13.545Z,2.73
2023-02-22T01:27:17.999Z,2.73
2023-02-22T01:32:21.222Z,2.60
2023-02-22T01:37:24.356Z,2.90
2023-02-22T01:42:30.042Z,3.47
2023-02-22T01:47:33.373Z,2.83
2023-02-22T01:52:38.364Z,3.97
2023-02-22T01:57:41.721Z,3.63
2023-02-22T02:02:48.925Z,3.33
2023-02-22T02:07:53.697Z,3.67
2023-02-22T02:12:59.022Z,2.87
2023-02-22T02:18:07.121Z,3.03
2023-02-22T02:23:45.864Z,4.37
2023-02-22T02:28:55.183Z,5.00
2023-02-22T02:34:20.476Z,4.07
2023-02-22T02:39:47.927Z,2.97
2023-02-22T02:45:02.985Z,4.00
2023-02-22T02:50:16.833Z,3.10
2023-02-22T02:55:20.381Z,3.30
2023-02-22T03:00:28.524Z,2.93
2023-02-22T03:05:41.295Z,3.80
2023-02-22T03:11:01.594Z,3.47
2023-02-22T03:16:57.125Z,3.60
2023-02-22T03:22:25.169Z,3.00
2023-02-22T03:27:36.196Z,3.47
2023-02-22T03:32:46.007Z,3.33
2023-02-22T03:37:54.674Z,3.67
2023-02-22T03:43:21.649Z,3.07
2023-02-22T03:48:32.192Z,3.23
2023-02-22T03:53:37.734Z,3.40
2023-02-22T03:58:46.107Z,4.10
2023-02-22T04:03:49.407Z,4.57
2023-02-22T04:08:52.692Z,3.77
2023-02-22T04:13:56.346Z,4.33
2023-02-22T04:18:59.828Z,5.17
2023-02-22T04:24:03.017Z,6.17
2023-02-22T04:29:06.636Z,7.40
2023-02-22T04:34:10.037Z,8.70
2023-02-22T04:39:13.407Z,7.60
2023-02-22T04:44:16.857Z,8.80
2023-02-22T04:49:20.270Z,8.07
2023-02-22T04:54:23.622Z,6.23
2023-02-22T04:59:27.207Z,6.23
2023-02-22T05:04:52.334Z,6.20
2023-02-22T05:09:55.880Z,5.70
2023-02-22T05:14:59.286Z,5.97
2023-02-22T05:20:03.852Z,6.43
2023-02-22T05:25:07.461Z,6.37
2023-02-22T05:30:12.406Z,7.03
2023-02-22T05:35:16.143Z,7.13
2023-02-22T05:40:21.610Z,5.53
2023-02-22T05:45:27.513Z,5.20
2023-02-22T05:50:30.865Z,5.83
2023-02-22T05:55:34.323Z,5.63
2023-02-22T06:00:37.610Z,5.87
2023-02-22T06:05:41.419Z,5.77
2023-02-22T06:10:45.199Z,5.17
2023-02-22T06:15:48.481Z,7.13
2023-02-22T06:20:51.829Z,8.27
2023-02-22T06:25:55.170Z,7.77
2023-02-22T06:30:58.579Z,7.20
2023-02-22T06:36:01.963Z,7.70
2023-02-22T06:41:05.554Z,9.23
2023-02-22T06:46:12.938Z,8.50
2023-02-22T06:51:17.011Z,9.30
2023-02-22T06:56:21.108Z,9.50
2023-02-22T07:01:24.625Z,9.13
2023-02-22T07:06:28.171Z,8.30
2023-02-22T07:11:31.520Z,9.03
2023-02-22T07:16:35.313Z,9.57
2023-02-22T07:21:38.644Z,8.40
2023-02-22T07:26:43.166Z,8.30
2023-02-22T07:31:47.384Z,6.97
2023-02-22T07:36:50.736Z,8.47
2023-02-22T07:41:54.065Z,9.90
2023-02-22T07:46:57.380Z,11.27
2023-02-22T07:52:01.544Z,14.00
2023-02-22T07:57:04.723Z,11.47
2023-02-22T08:02:15.915Z,10.60
2023-02-22T08:07:19.209Z,10.33
2023-02-22T08:12:22.817Z,8.97
2023-02-22T08:17:26.185Z,6.87
2023-02-22T08:22:29.495Z,6.57
2023-02-22T08:27:34.351Z,6.17
2023-02-22T08:32:37.620Z,5.40
2023-02-22T08:37:49.825Z,6.00
2023-02-22T08:42:52.905Z,3.87
2023-02-22T08:47:56.452Z,4.27
2023-02-22T08:53:01.452Z,4.10
2023-02-22T08:58:09.674Z,3.67
2023-02-22T09:03:16.998Z,3.60
2023-02-22T09:08:21.014Z,2.87
2023-02-22T09:13:24.008Z,2.73
2023-02-22T09:18:42.384Z,1.80
2023-02-22T09:23:48.039Z,1.57
2023-02-22T09:28:53.116Z,1.70
2023-02-22T09:33:56.510Z,0.77
2023-02-22T09:38:59.764Z,0.60
2023-02-22T09:44:10.659Z,2.33
2023-02-22T09:49:19.845Z,1.63
2023-02-22T09:54:30.508Z,1.80
2023-02-22T09:59:43.325Z,1.73
2023-02-22T10:04:55.848Z,1.03
2023-02-22T10:10:06.756Z,1.80
2023-02-22T10:15:13.005Z,1.53
2023-02-22T10:20:19.274Z,1.63
2023-02-22T10:25:30.560Z,1.93
2023-02-22T10:30:42.290Z,1.23
2023-02-22T10:35:47.174Z,0.90
2023-02-22T10:41:28.301Z,1.77
2023-02-22T10:46:33.745Z,1.93
2023-02-22T10:51:37.528Z,1.50
2023-02-22T10:56:52.690Z,1.80
2023-02-22T11:01:55.925Z,1.57
2023-02-22T11:07:05.151Z,1.30
2023-02-22T11:12:17.973Z,1.90
2023-02-22T11:17:33.087Z,1.43
2023-02-22T11:22:42.469Z,0.73
2023-02-22T11:27:47.478Z,1.30
2023-02-22T11:33:03.526Z,1.47
2023-02-22T11:38:40.633Z,1.10
2023-02-22T11:43:49.576Z,1.00
2023-02-22T11:49:14.489Z,1.57
2023-02-22T11:54:31.983Z,1.43
2023-02-22T12:00:16.784Z,1.93
2023-02-22T12:05:43.176Z,1.23
2023-02-22T12:11:04.433Z,1.10
2023-02-22T12:16:20.953Z,1.30
2023-02-22T12:21:26.314Z,1.80
2023-02-22T12:26:50.767Z,1.30
2023-02-22T12:32:07.048Z,1.47
2023-02-22T12:37:18.649Z,0.93
2023-02-22T12:42:41.326Z,1.40
2023-02-22T12:47:59.936Z,1.37
2023-02-22T12:53:42.279Z,1.73
2023-02-22T12:59:09.596Z,1.10
2023-02-22T13:04:20.683Z,2.27
2023-02-22T13:09:58.122Z,1.83
2023-02-22T13:15:17.533Z,2.20
2023-02-22T13:20:43.784Z,2.13
2023-02-22T13:26:15.086Z,2.33
2023-02-22T13:31:36.568Z,2.00
2023-02-22T13:37:09.092Z,2.10
2023-02-22T13:42:29.365Z,2.63
2023-02-22T13:48:00.553Z,2.63
2023-02-22T13:53:15.604Z,2.57
2023-02-22T13:58:19.660Z,2.30
2023-02-22T14:03:24.306Z,2.67
2023-02-22T14:08:28.217Z,2.43
2023-02-22T14:14:01.192Z,2.17
2023-02-22T14:19:13.803Z,2.23
2023-02-22T14:24:19.749Z,2.87
2023-02-22T14:29:23.144Z,2.30
2023-02-22T14:34:49.778Z,2.60
2023-02-22T14:40:02.807Z,2.53
2023-02-22T14:45:17.495Z,2.30
2023-02-22T14:50:45.032Z,2.10
2023-02-22T14:55:59.288Z,2.30
2023-02-22T15:01:20.572Z,2.87
2023-02-22T15:06:27.277Z,1.97
2023-02-22T15:11:36.028Z,3.70
2023-02-22T15:16:43.143Z,5.77
2023-02-22T15:21:46.899Z,3.37
2023-02-22T15:27:01.352Z,2.23
2023-02-22T15:32:34.279Z,2.77
2023-02-22T15:37:37.495Z,3.47
2023-02-22T15:42:58.637Z,2.77
2023-02-22T15:48:02.484Z,3.97
2023-02-22T15:53:09.542Z,4.83
2023-02-22T15:58:24.044Z,4.30
2023-02-22T16:03:34.291Z,5.73
2023-02-22T16:08:55.121Z,4.30
2023-02-22T16:14:05.646Z,2.27
2023-02-22T16:19:31.936Z,3.80
2023-02-22T16:24:37.226Z,3.87
2023-02-22T16:29:45.757Z,5.13
2023-02-22T16:34:51.164Z,4.17
2023-02-22T16:39:57.519Z,3.83
2023-02-22T16:45:04.301Z,4.57
2023-02-22T16:50:09.003Z,4.30
2023-02-22T16:55:15.112Z,4.20
2023-02-22T17:00:31.769Z,5.47
2023-02-22T17:05:36.734Z,6.50
2023-02-22T17:10:41.790Z,7.27
2023-02-22T17:15:46.739Z,5.53
2023-02-22T17:20:55.933Z,3.03
2023-02-22T17:26:03.771Z,3.10
2023-02-22T17:31:08.263Z,3.00
2023-02-22T17:36:13.779Z,4.17
2023-02-22T17:41:18.296Z,2.67
2023-02-22T17:46:23.668Z,3.10
2023-02-22T17:51:30.447Z,4.60
2023-02-22T17:56:36.070Z,3.00
2023-02-22T18:01:41.496Z,3.60
2023-02-22T18:06:46.754Z,5.30
2023-02-22T18:11:53.391Z,4.57
2023-02-22T18:16:57.909Z,6.37
2023-02-22T18:22:04.017Z,6.23
2023-02-22T18:27:14.529Z,6.40
2023-02-22T18:32:19.467Z,7.30
2023-02-22T18:37:25.442Z,6.87
2023-02-22T18:42:30.172Z,7.33
2023-02-22T18:47:44.569Z,5.30
2023-02-22T18:52:50.759Z,5.00
2023-02-22T18:57:57.948Z,6.37
2023-02-22T19:03:08.224Z,8.97
2023-02-22T19:08:14.833Z,10.37
2023-02-22T19:13:22.358Z,12.20
2023-02-22T19:18:27.840Z,10.67
2023-02-22T19:23:35.305Z,9.50
2023-02-22T19:28:42.020Z,9.10
2023-02-22T19:33:50.019Z,8.83
2023-02-22T19:39:03.628Z,8.70
2023-02-22T19:44:10.039Z,8.23
2023-02-22T19:49:15.217Z,8.20
2023-02-22T19:54:24.200Z,6.97
2023-02-22T19:59:31.288Z,6.33
2023-02-22T20:04:39.588Z,6.20
2023-02-22T20:09:48.169Z,6.83
2023-02-22T20:14:54.330Z,6.53
2023-02-22T20:20:02.679Z,7.83
2023-02-22T20:25:08.115Z,4.70
2023-02-22T20:30:24.794Z,5.43
2023-02-22T20:35:41.278Z,5.57
2023-02-22T20:40:48.003Z,6.50
2023-02-22T20:45:55.079Z,5.30
2023-02-22T20:51:16.771Z,4.73
2023-02-22T20:56:28.020Z,5.03
2023-02-22T21:01:42.029Z,5.67
2023-02-22T21:06:50.205Z,7.00
2023-02-22T21:12:00.538Z,6.50
2023-02-22T21:17:08.817Z,7.60
2023-02-22T21:22:19.802Z,7.03
2023-02-22T21:27:26.597Z,6.67
2023-02-22T21:32:37.867Z,7.00
2023-02-22T21:37:50.240Z,5.67
2023-02-22T21:42:58.214Z,7.93
2023-02-22T21:48:04.435Z,5.80
2023-02-22T21:53:11.437Z,6.50
2023-02-22T21:58:16.658Z,10.37
2023-02-22T22:03:22.359Z,10.67
2023-02-22T22:08:28.061Z,16.57
2023-02-22T22:13:31.400Z,11.97
2023-02-22T22:18:39.421Z,12.13
2023-02-22T22:23:48.752Z,13.50
2023-02-22T22:28:59.378Z,11.90
2023-02-22T22:34:02.415Z,9.97
2023-02-22T22:39:15.627Z,9.43
2023-02-22T22:44:22.596Z,9.80
2023-02-22T22:49:28.799Z,9.50
2023-02-22T22:54:32.267Z,9.70
2023-02-22T22:59:35.524Z,10.40
2023-02-22T23:04:38.786Z,10.33
2023-02-22T23:09:42.519Z,10.63
2023-02-22T23:14:47.114Z,10.57
2023-02-22T23:19:50.480Z,12.20
2023-02-22T23:24:54.967Z,10.80
2023-02-22T23:29:58.211Z,9.67
2023-02-22T23:35:02.435Z,9.47
2023-02-22T23:40:17.166Z,9.37
2023-02-22T23:45:24.064Z,10.03
2023-02-22T23:50:31.167Z,8.90
2023-02-22T23:55:39.368Z,8.70
